Stations météo

Publicité
Nimes/Courbessac, France (7645): Température de l'air & dewpoint: 02.12.2019 11:00:00 - 08.12.2019 11:00:00 (CET)Nimes/Courbessac, France (7645): Température de l'air 5cm: 02.12.2019 11:00:00 - 08.12.2019 11:00:00 (CET)Nimes/Courbessac, France (7645): Température de l'air -20cm: 02.12.2019 11:00:00 - 08.12.2019 11:00:00 (CET)Nimes/Courbessac, France (7645): Vitesse du vent & gusts: 02.12.2019 11:00:00 - 08.12.2019 11:00:00 (CET)Nimes/Courbessac, France (7645): Direction du vent: 02.12.2019 11:00:00 - 08.12.2019 11:00:00 (CET)Nimes/Courbessac, France (7645): reduced air pressure: 02.12.2019 11:00:00 - 08.12.2019 11:00:00 (CET)Nimes/Courbessac, France (7645): Ensoleillement: 02.12.2019 11:00:00 - 08.12.2019 11:00:00 (CET)Nimes/Courbessac, France (7645): Quantités de précipitations: 02.12.2019 11:00:00 - 08.12.2019 11:00:00 (CET)
Date & Time tt [°C] td [°C] tt 5cm [°C] tt -20cm [°C] ff [km/h] ff [knt] fx [km/h] fx [knt] dd ppp [hPa] sd [min] rr [mm]
08.12.2019 11:00:00 11,3 6,0 11,0 7,4 4 2 9 5 E 1021,7 60 0,0
08.12.2019 10:00:00 9,4 5,4 5,3 7,5 3 2 6 3 ENE 1021,4 60 0,0
08.12.2019 09:00:00 5,5 4,3 0,9 7,6 0 0 5 3 N 1021,6 32 0,0
08.12.2019 08:00:00 3,4 2,2 1,2 7,7 3 1 14 8 E 1021,2 0 0,0
08.12.2019 07:00:00 4,1 2,9 1,2 7,8 3 2 8 5 NW 1020,6 0 0,0
08.12.2019 06:00:00 6,7 4,7 1,5 8,0 8 4 14 8 NW 1020,6 0 0,0
08.12.2019 05:00:00 6,0 3,2 3,6 8,0 4 2 14 7 SE 1020,6 0 0,0
08.12.2019 04:00:00 7,9 4,3 5,3 8,1 8 4 13 7 NW 1020,6 0 0,0
08.12.2019 03:00:00 8,4 4,6 6,7 8,2 9 5 16 9 NW 1021,2 0 0,0
08.12.2019 02:00:00 9,4 5,0 7,7 8,3 12 7 24 13 WNW 1021,1 0 0,0
08.12.2019 01:00:00 9,0 4,8 7,5 8,4 12 7 22 12 NW 1021,4 0 0,0
08.12.2019 00:00:00 9,9 4,9 8,2 8,4 11 6 21 11 WNW 1022,0 0 0,0
07.12.2019 23:00:00 9,8 5,0 8,4 8,5 11 6 21 11 WNW 1021,9 0 0,0
07.12.2019 22:00:00 10,8 5,3 9,5 8,6 11 6 26 14 WNW 1021,6 0 0,0
07.12.2019 21:00:00 11,3 5,4 4,4 8,7 14 8 23 13 W 1021,5 0 0,0
07.12.2019 20:00:00 8,2 5,8 3,9 8,9 4 2 10 6 WNW 1021,4 0 0,0
07.12.2019 19:00:00 7,4 5,0 4,3 8,9 0 0 10 6 N 1021,0 0 0,0
07.12.2019 18:00:00 8,5 6,5 5,3 9,0 3 1 9 5 WNW 1020,9 0 0,0
07.12.2019 17:00:00 10,9 7,2 7,7 8,9 2 1 7 4 SW 1020,5 0 0,0
07.12.2019 16:00:00 14,6 7,4 14,2 8,7 4 2 9 5 SSE 1020,2 47 0,0
07.12.2019 15:00:00 15,0 6,8 18,7 8,3 5 3 11 6 S 1020,1 57 0,0
07.12.2019 14:00:00 15,4 6,7 17,8 7,9 6 3 10 6 SSE 1020,3 50 0,0
07.12.2019 13:00:00 14,8 6,6 12,5 7,6 3 2 7 4 S 1020,9 48 0,0
07.12.2019 12:00:00 13,6 6,2 12,4 7,4 0 0 10 5 N 1021,6 45 0,0
07.12.2019 11:00:00 11,0 4,7 7,6 7,3 4 2 8 4 SSW 1022,2 52 0,0
07.12.2019 10:00:00 6,5 4,2 5,1 7,3 3 1 5 3 W 1022,4 33 0,0
07.12.2019 09:00:00 4,6 3,7 2,4 7,3 3 2 7 4 NW 1022,1 25 0,0
07.12.2019 08:00:00 3,3 2,3 2,0 7,4 2 1 7 4 NE 1021,9 0 0,0
07.12.2019 07:00:00 3,9 3,0 3,4 7,4 3 1 7 4 SSW 1021,4 0 0,0
07.12.2019 06:00:00 3,7 3,0 1,9 7,5 3 2 7 4 NW 1021,4 0 0,0
07.12.2019 05:00:00 3,3 2,4 1,8 7,6 3 2 10 5 NW 1021,3 0 0,0
07.12.2019 04:00:00 4,0 2,8 2,3 7,7 4 2 10 5 WNW 1021,6 0 0,0
07.12.2019 03:00:00 4,2 3,3 2,8 7,8 3 1 9 5 WNW 1022,1 0 0,0
07.12.2019 02:00:00 4,1 3,2 2,0 7,9 5 3 10 6 NW 1021,8 0 0,0
07.12.2019 01:00:00 3,7 2,7 1,7 8,1 7 4 11 6 WNW 1022,6 0 0,0
07.12.2019 00:00:00 4,0 2,7 2,8 8,2 6 3 9 5 WNW 1022,7 0 0,0
06.12.2019 23:00:00 4,6 3,1 3,2 8,4 5 3 10 5 WNW 1022,3 0 0,0
06.12.2019 22:00:00 4,5 2,8 3,2 8,5 5 3 10 5 WNW 1021,9 0 0,0
06.12.2019 21:00:00 4,9 3,2 3,8 8,7 6 3 9 5 WNW 1022,1 0 0,0
06.12.2019 20:00:00 5,5 3,3 4,3 8,8 5 3 10 6 WNW 1022,1 0 0,0
06.12.2019 19:00:00 6,5 3,8 5,0 8,9 6 3 9 5 WNW 1021,5 0 0,0
06.12.2019 18:00:00 7,9 4,5 5,5 9,0 5 3 7 4 WNW 1021,5 0 0,0
06.12.2019 17:00:00 10,7 4,8 6,8 8,9 0 0 3 2 N 1021,3 21 0,0
06.12.2019 16:00:00 14,5 4,5 14,4 8,7 3 2 10 6 ESE 1021,3 60 0,0
06.12.2019 15:00:00 15,1 4,5 19,2 8,3 6 3 11 6 SE 1021,5 60 0,0
06.12.2019 14:00:00 15,2 4,0 18,2 7,9 3 1 9 5 SE 1022,2 60 0,0
06.12.2019 13:00:00 14,1 4,7 13,0 7,5 5 3 10 5 ENE 1023,1 60 0,0
06.12.2019 12:00:00 12,7 3,9 13,2 7,3 6 3 11 6 E 1023,8 60 0,0
06.12.2019 11:00:00 11,3 5,2 9,6 7,2 2 1 7 4 SE 1024,5 60 0,0
06.12.2019 10:00:00 7,9 3,7 4,3 7,3 3 2 5 3 E 1024,6 60 0,0
06.12.2019 09:00:00 4,4 2,3 -0,6 7,4 2 1 17 9 NE 1024,4 34 0,0
06.12.2019 08:00:00 2,1 0,8 -0,5 7,6 3 1 7 4 N 1024,0 0 0,0
06.12.2019 07:00:00 3,6 1,5 0,3 7,7 0 0 10 6 N 1023,7 0 0,0
06.12.2019 06:00:00 3,7 1,7 1,0 7,8 0 0 10 5 N 1023,6 0 0,0
06.12.2019 05:00:00 5,7 2,5 4,2 7,8 4 2 14 8 NNW 1023,6 0 0,0
06.12.2019 04:00:00 5,6 3,8 4,5 7,8 3 1 9 5 WNW 1023,6 0 0,0
06.12.2019 03:00:00 5,8 3,6 4,8 7,9 2 1 6 4 ENE 1024,0 0 0,0
06.12.2019 02:00:00 5,6 3,8 4,0 8,0 5 3 8 4 NW 1023,7 0 0,0
06.12.2019 01:00:00 5,2 3,5 1,5 8,1 4 2 11 6 WNW 1023,8 0 0,0
06.12.2019 00:00:00 4,0 2,3 0,8 8,2 0 0 6 3 N 1024,5 0 0,0
05.12.2019 23:00:00 4,6 2,6 1,4 8,4 0 0 6 3 N 1024,6 0 0,0
05.12.2019 22:00:00 6,0 2,8 3,2 8,5 2 1 6 3 N 1024,5 0 0,0
05.12.2019 21:00:00 8,1 3,2 4,5 8,5 5 3 18 10 E 1024,3 0 0,0
05.12.2019 20:00:00 7,5 3,4 4,6 8,5 2 1 12 6 NW 1024,1 0 0,0
05.12.2019 19:00:00 8,2 3,8 6,2 8,6 4 2 9 5 NNW 1023,5 0 0,0
05.12.2019 18:00:00 8,0 4,8 5,4 8,5 5 3 8 5 NW 1022,8 0 0,0
05.12.2019 17:00:00 9,6 4,6 7,5 8,4 3 1 6 3 N 1022,4 0 0,0
05.12.2019 16:00:00 12,0 4,5 11,6 8,1 0 0 10 6 N 1022,1 0 0,0
05.12.2019 15:00:00 12,6 4,0 13,1 7,9 6 4 13 7 N 1021,9 0 0,0
05.12.2019 14:00:00 12,4 3,6 13,0 7,6 8 5 15 8 N 1021,9 0 0,0
05.12.2019 13:00:00 12,0 2,7 12,9 7,3 6 3 16 9 NNW 1022,2 0 0,0
05.12.2019 12:00:00 12,2 2,9 10,9 7,1 4 2 16 9 NNW 1022,4 23 0,0
05.12.2019 11:00:00 10,5 2,1 10,5 7,0 11 6 34 18 NW 1022,2 27 0,0
05.12.2019 10:00:00 9,6 1,5 7,4 7,0 15 8 26 14 NNW 1021,7 38 0,0
05.12.2019 09:00:00 7,9 1,3 4,5 7,1 16 9 34 18 NNW 1020,8 10 0,0
05.12.2019 08:00:00 5,8 1,1 0,5 7,2 10 5 21 11 N 1020,3 0 0,0
05.12.2019 07:00:00 3,6 0,8 1,0 7,4 8 4 13 7 N 1019,5 0 0,0
05.12.2019 06:00:00 2,7 0,9 0,1 7,5 4 2 8 4 W 1019,0 0 0,0
05.12.2019 05:00:00 3,6 1,3 1,2 7,6 5 3 11 6 N 1018,4 0 0,0
05.12.2019 04:00:00 3,8 1,5 1,4 7,8 4 2 10 5 NNW 1018,3 0 0,0
05.12.2019 03:00:00 3,5 1,2 1,0 7,9 2 1 6 3 NNW 1018,2 0 0,0
05.12.2019 02:00:00 4,7 1,0 1,9 8,0 3 1 9 5 SSE 1018,0 0 0,0
05.12.2019 01:00:00 6,7 1,0 3,7 8,0 5 3 14 8 N 1017,8 0 0,0
05.12.2019 00:00:00 8,7 0,9 7,4 8,1 3 2 26 14 NNE 1017,8 0 0,0
04.12.2019 23:00:00 8,0 0,9 6,8 8,1 13 7 34 18 NNW 1017,3 0 0,0
04.12.2019 22:00:00 8,6 0,8 7,6 8,2 17 9 35 19 NW 1017,0 0 0,0
04.12.2019 21:00:00 8,5 0,5 7,7 8,2 19 10 36 19 NNW 1016,7 0 0,0
04.12.2019 20:00:00 8,6 0,6 7,8 8,3 18 10 40 22 NNW 1016,8 0 0,0
04.12.2019 19:00:00 9,1 0,0 7,9 8,3 22 12 36 19 NNW 1016,6 0 0,0
04.12.2019 18:00:00 8,9 0,3 8,0 8,3 18 10 32 17 NW 1016,4 0 0,0
04.12.2019 17:00:00 8,9 1,3 7,7 8,3 8 4 22 12 NNW 1016,3 0 0,0
04.12.2019 16:00:00 9,5 2,6 9,2 - 8 5 15 8 N 1016,4 0 0,0
04.12.2019 15:00:00 9,9 2,5 10,3 - 9 5 21 12 NNE 1015,8 0 0,0
04.12.2019 14:00:00 9,6 2,2 9,3 - 6 4 16 9 NNW 1015,7 0 0,0
04.12.2019 13:00:00 8,5 1,6 8,3 - 6 4 21 11 N 1016,4 0 0,0
04.12.2019 12:00:00 7,6 1,4 8,1 - 6 3 16 9 N 1016,8 0 0,0
04.12.2019 11:00:00 7,2 1,3 5,8 - 7 4 19 10 NNW 1017,8 0 0,0
04.12.2019 10:00:00 5,4 0,4 3,9 - 9 5 22 12 NNW 1017,6 0 0,0
04.12.2019 09:00:00 4,0 0,3 1,6 - 5 3 13 7 N 1017,7 0 0,0
04.12.2019 08:00:00 2,8 -0,1 0,4 - 5 3 10 5 N 1017,8 0 0,0
04.12.2019 07:00:00 2,3 -0,5 -0,8 - 3 1 11 6 ENE 1017,7 0 0,0
04.12.2019 06:00:00 1,5 -0,7 -1,0 - 3 2 7 4 N 1018,4 0 0,0
04.12.2019 05:00:00 2,8 -0,3 -0,5 - 2 1 9 5 N 1018,8 0 0,0
04.12.2019 04:00:00 3,0 -0,6 1,3 - 4 2 19 10 ENE 1019,8 0 0,0
04.12.2019 03:00:00 2,4 -0,2 -0,8 - 3 2 16 9 N 1020,2 0 0,0
04.12.2019 02:00:00 2,0 -0,4 -0,6 - 4 2 9 5 N 1021,1 0 0,0
04.12.2019 01:00:00 3,8 -0,2 1,9 - 4 2 19 10 ENE 1021,0 0 0,0
04.12.2019 00:00:00 3,8 0,0 1,9 - 3 2 16 9 NNE 1021,3 0 0,0
03.12.2019 23:00:00 4,1 0,2 2,4 - 4 2 16 9 N 1021,1 0 0,0
03.12.2019 22:00:00 4,3 0,3 2,3 - 5 3 23 12 N 1021,2 0 0,0
03.12.2019 21:00:00 4,8 0,4 3,4 - 6 3 21 11 N 1021,0 0 0,0
03.12.2019 20:00:00 5,2 0,6 3,7 - 8 4 23 13 NNE 1021,0 0 0,0
03.12.2019 19:00:00 5,3 0,7 3,9 - 9 5 16 9 N 1020,9 0 0,0
03.12.2019 18:00:00 5,9 0,8 4,9 - 9 5 19 11 N 1020,7 0 0,0
03.12.2019 17:00:00 7,1 1,4 6,2 - 9 5 19 10 N 1020,6 23 0,0
03.12.2019 16:00:00 9,5 1,6 9,0 - 14 7 29 16 N 1020,4 60 0,0
03.12.2019 15:00:00 10,5 1,8 13,6 - 11 6 28 15 NNW 1020,4 60 0,0
03.12.2019 14:00:00 10,8 2,4 13,1 - 16 8 34 18 NNW 1020,5 60 0,0
03.12.2019 13:00:00 9,9 1,3 10,1 - 18 10 37 20 NNW 1021,0 60 0,0
03.12.2019 12:00:00 9,3 1,4 10,2 - 14 7 40 22 NNW 1021,7 56 0,0
03.12.2019 11:00:00 8,1 0,8 7,7 - 12 7 45 25 NNW 1022,1 45 0,0
03.12.2019 10:00:00 7,0 0,6 6,0 9,9 14 8 32 18 NNW 1021,6 38 0,0
03.12.2019 09:00:00 5,8 0,1 4,3 10,0 11 6 30 16 NNW 1021,2 37 0,0
03.12.2019 08:00:00 5,1 -0,1 4,6 10,1 17 9 41 22 NNW 1020,7 0 0,0
03.12.2019 07:00:00 5,5 0,1 4,9 10,2 17 9 46 25 NNW 1020,4 0 0,0
03.12.2019 06:00:00 5,7 0,0 5,4 10,3 19 10 46 25 NNW 1020,0 0 0,0
03.12.2019 05:00:00 5,8 -0,1 4,8 10,4 23 12 48 26 NNW 1019,7 0 0,0
03.12.2019 04:00:00 5,5 -0,1 4,8 10,5 23 13 45 24 NW 1019,6 0 0,0
03.12.2019 03:00:00 5,5 -0,1 4,9 10,6 24 13 46 25 NW 1019,5 0 0,0
03.12.2019 02:00:00 5,8 0,1 4,9 10,7 24 13 49 27 NW 1019,5 0 0,0
03.12.2019 01:00:00 5,9 0,4 5,1 10,8 19 11 46 25 NNW 1019,4 0 0,0
03.12.2019 00:00:00 6,2 0,9 5,5 10,9 18 10 48 26 NNW 1019,6 0 0,0
02.12.2019 23:00:00 6,6 1,3 5,6 11,0 22 12 47 25 NNW 1019,1 0 0,0
02.12.2019 22:00:00 6,5 1,6 5,2 11,1 17 9 45 25 NNW 1018,8 0 0,0
02.12.2019 21:00:00 6,4 2,1 5,5 11,2 17 9 34 18 NNW 1018,8 0 0,0
02.12.2019 20:00:00 6,5 2,6 5,6 11,2 14 8 33 18 NNW 1018,7 0 0,0
02.12.2019 19:00:00 6,7 2,9 6,1 11,3 20 11 43 23 NW 1017,9 0 0,0
02.12.2019 18:00:00 8,8 2,1 7,8 11,3 17 9 41 22 NNW 1017,7 0 0,0
02.12.2019 17:00:00 9,2 3,6 8,2 11,3 10 5 30 16 NW 1017,6 24 0,0
02.12.2019 16:00:00 11,4 4,1 10,7 11,2 13 7 40 22 NNW 1017,5 60 0,0
02.12.2019 15:00:00 12,0 4,2 14,5 11,1 18 10 39 21 NNW 1017,0 60 0,0
02.12.2019 14:00:00 12,8 4,5 15,8 11,0 21 11 44 24 N 1017,0 60 0,0
02.12.2019 13:00:00 12,6 5,3 12,6 11,0 23 13 44 24 NNW 1017,1 60 0,0
02.12.2019 12:00:00 12,5 5,4 12,8 11,0 21 11 43 23 N 1017,4 60 0,0
02.12.2019 11:00:00 11,9 5,7 12,4 11,0 13 7 37 20 N 1017,8 60 0,0

tt = Température de l'air
td = dewpoint
tt 5cm = Température de l'air 5cm
tt -20cm = Température de l'air -20cm
ff = Vitesse du vent
fx = gusts
dd = Direction du vent
ppp = reduced air pressure
sd = Ensoleillement
rr = Quantités de précipitations

stations d'obs. à proximité